createdAt,value
2017-12-28T00:00:13.330Z,97507.23
2017-12-28T00:02:42.575Z,97515.57
2017-12-28T00:05:11.762Z,97519.55
2017-12-28T00:07:41.754Z,97520.05
2017-12-28T00:10:11.123Z,97524.57
2017-12-28T00:12:40.324Z,97537.80
2017-12-28T00:15:09.528Z,97540.06
2017-12-28T00:17:38.867Z,97545.44
2017-12-28T00:20:08.840Z,97543.08
2017-12-28T00:22:38.100Z,97544.48
2017-12-28T00:25:07.294Z,97558.17
2017-12-28T00:27:36.508Z,97552.77
2017-12-28T00:30:05.706Z,97564.97
2017-12-28T00:32:34.915Z,97560.33
2017-12-28T00:35:04.111Z,97565.77
2017-12-28T00:37:33.336Z,97574.66
2017-12-28T00:40:02.564Z,97579.86
2017-12-28T00:42:31.743Z,97583.86
2017-12-28T00:45:01.010Z,97580.81
2017-12-28T00:47:30.205Z,97590.27
2017-12-28T00:49:59.409Z,97587.61
2017-12-28T00:52:28.609Z,97594.72
2017-12-28T00:54:57.851Z,97605.36
2017-12-28T00:57:27.824Z,97606.36
2017-12-28T00:59:57.015Z,97606.39
2017-12-28T01:02:26.214Z,97615.59
2017-12-28T01:04:55.439Z,97612.65
2017-12-28T01:07:25.398Z,97618.42
2017-12-28T01:09:54.593Z,97625.48
2017-12-28T01:12:23.786Z,97630.48
2017-12-28T01:14:52.995Z,97633.77
2017-12-28T01:17:22.199Z,97629.38
2017-12-28T01:19:51.373Z,97636.98
2017-12-28T01:22:20.587Z,97636.99
2017-12-28T01:24:49.767Z,97649.09
2017-12-28T01:27:19.069Z,97657.02
2017-12-28T01:29:48.263Z,97666.61
2017-12-28T01:32:17.466Z,97668.34
2017-12-28T01:34:46.742Z,97670.92
2017-12-28T01:37:15.963Z,97663.67
2017-12-28T01:39:45.234Z,97670.30
2017-12-28T01:42:15.206Z,97678.66
2017-12-28T01:44:44.399Z,97676.28
2017-12-28T01:47:13.586Z,97671.71
2017-12-28T01:49:42.783Z,97687.66
2017-12-28T01:52:12.066Z,97693.70
2017-12-28T01:54:41.286Z,97702.82
2017-12-28T01:57:10.486Z,97705.63
2017-12-28T01:59:39.681Z,97711.62
2017-12-28T02:02:08.879Z,97718.88
2017-12-28T02:04:38.103Z,97728.77
2017-12-28T02:07:07.300Z,97723.37
2017-12-28T02:09:36.580Z,97738.22
2017-12-28T02:12:05.774Z,97742.57
2017-12-28T02:14:35.055Z,97747.39
2017-12-28T02:17:04.258Z,97750.81
2017-12-28T02:19:33.454Z,97764.81
2017-12-28T02:22:02.695Z,97763.21
2017-12-28T02:24:32.659Z,97760.75
2017-12-28T02:27:01.870Z,97760.03
2017-12-28T02:29:31.066Z,97774.14
2017-12-28T02:32:00.265Z,97770.95
2017-12-28T02:34:29.466Z,97762.45
2017-12-28T02:36:58.663Z,97770.86
2017-12-28T02:39:27.862Z,97774.21
2017-12-28T02:41:57.070Z,97786.09
2017-12-28T02:44:27.898Z,97786.09
2017-12-28T02:46:57.195Z,97794.93
2017-12-28T02:49:28.867Z,97790.67
2017-12-28T02:51:58.039Z,97791.45
2017-12-28T02:54:27.262Z,97802.20
2017-12-28T02:56:56.450Z,97807.88
2017-12-28T02:59:25.673Z,97810.99
2017-12-28T03:01:54.881Z,97815.02
2017-12-28T03:04:24.865Z,97818.41
2017-12-28T03:06:54.076Z,97826.08
2017-12-28T03:09:23.261Z,97827.20
2017-12-28T03:11:52.474Z,97833.87
2017-12-28T03:14:22.502Z,97829.31
2017-12-28T03:16:52.481Z,97833.86
2017-12-28T03:19:21.690Z,97832.50
2017-12-28T03:21:50.900Z,97837.84
2017-12-28T03:24:20.103Z,97841.31
2017-12-28T03:26:49.346Z,97838.91
2017-12-28T03:29:18.560Z,97841.95
2017-12-28T03:31:47.781Z,97846.69
2017-12-28T03:34:16.974Z,97854.44
2017-12-28T03:36:46.190Z,97855.83
2017-12-28T03:39:15.366Z,97854.44
2017-12-28T03:41:44.608Z,97855.74
2017-12-28T03:44:14.554Z,97859.00
2017-12-28T03:46:43.762Z,97859.04
2017-12-28T03:49:13.203Z,97854.84
2017-12-28T03:51:42.422Z,97855.80
2017-12-28T03:54:11.632Z,97866.21
2017-12-28T03:56:40.855Z,97869.63
2017-12-28T03:59:10.099Z,97870.53
2017-12-28T04:01:39.350Z,97874.84
2017-12-28T04:04:08.558Z,97878.56
2017-12-28T04:06:37.788Z,97881.34
2017-12-28T04:09:07.758Z,97879.09
2017-12-28T04:11:37.765Z,97884.76
2017-12-28T04:14:06.981Z,97891.91
2017-12-28T04:16:36.168Z,97887.72
2017-12-28T04:19:05.370Z,97901.11
2017-12-28T04:21:34.564Z,97899.16
2017-12-28T04:24:03.774Z,97902.06
2017-12-28T04:26:32.978Z,97909.69
2017-12-28T04:29:02.171Z,97918.02
2017-12-28T04:31:31.367Z,97925.37
2017-12-28T04:34:00.581Z,97925.86
2017-12-28T04:36:29.784Z,97937.95
2017-12-28T04:38:58.982Z,97939.30
2017-12-28T04:41:28.224Z,97940.68
2017-12-28T04:43:57.382Z,97942.87
2017-12-28T04:46:27.432Z,97944.27
2017-12-28T04:48:56.669Z,97956.10
2017-12-28T04:51:25.879Z,97953.80
2017-12-28T04:53:55.086Z,97961.70
2017-12-28T04:56:25.106Z,97957.88
2017-12-28T04:58:55.083Z,97965.73
2017-12-28T05:01:24.397Z,97965.91
2017-12-28T05:03:53.648Z,97967.34
2017-12-28T05:06:22.905Z,97968.80
2017-12-28T05:08:52.089Z,97968.28
2017-12-28T05:11:21.333Z,97970.54
2017-12-28T05:13:50.535Z,97971.20
2017-12-28T05:16:19.718Z,97987.22
2017-12-28T05:18:49.689Z,97999.92
2017-12-28T05:21:18.956Z,98000.55
2017-12-28T05:23:48.174Z,98007.77
2017-12-28T05:26:17.383Z,98017.41
2017-12-28T05:28:46.591Z,98002.12
2017-12-28T05:31:15.791Z,98006.27
2017-12-28T05:33:45.020Z,98008.62
2017-12-28T05:36:14.967Z,98024.70
2017-12-28T05:38:44.172Z,98033.52
2017-12-28T05:41:13.367Z,98032.35
2017-12-28T05:43:43.865Z,98044.84
2017-12-28T05:46:15.980Z,98046.45
2017-12-28T05:48:45.186Z,98051.03
2017-12-28T05:51:14.391Z,98053.98
2017-12-28T05:53:43.604Z,98052.42
2017-12-28T05:56:12.807Z,98056.00
2017-12-28T05:58:42.782Z,98058.02
2017-12-28T06:01:12.002Z,98059.42
2017-12-28T06:03:41.204Z,98059.14
2017-12-28T06:06:10.408Z,98062.23
2017-12-28T06:08:39.598Z,98071.25
2017-12-28T06:11:08.817Z,98086.09
2017-12-28T06:13:38.801Z,98083.67
2017-12-28T06:16:07.998Z,98090.47
2017-12-28T06:18:37.260Z,98099.58
2017-12-28T06:21:06.462Z,98093.98
2017-12-28T06:23:35.657Z,98103.44
2017-12-28T06:26:04.954Z,98105.28
2017-12-28T06:28:34.154Z,98107.44
2017-12-28T06:31:03.385Z,98104.75
2017-12-28T06:33:32.571Z,98110.65
2017-12-28T06:36:01.759Z,98116.34
2017-12-28T06:38:30.970Z,98117.06
2017-12-28T06:41:00.223Z,98125.69
2017-12-28T06:43:29.362Z,98127.59
2017-12-28T06:45:58.562Z,98136.16
2017-12-28T06:48:27.747Z,98134.29
2017-12-28T06:50:56.944Z,98141.59
2017-12-28T06:53:26.142Z,98148.03
2017-12-28T06:55:55.430Z,98148.31
2017-12-28T06:58:24.631Z,98155.34
2017-12-28T07:00:55.087Z,98157.66
2017-12-28T07:03:24.321Z,98160.94
2017-12-28T07:05:53.506Z,98168.66
2017-12-28T07:08:23.510Z,98167.54
2017-12-28T07:10:52.719Z,98173.56
2017-12-28T07:13:22.671Z,98171.13
2017-12-28T07:15:51.860Z,98166.42
2017-12-28T07:18:21.079Z,98175.21
2017-12-28T07:20:50.290Z,98171.04
2017-12-28T07:23:19.554Z,98174.88
2017-12-28T07:25:48.821Z,98185.96
2017-12-28T07:28:18.911Z,98186.02
2017-12-28T07:30:48.127Z,98198.08
2017-12-28T07:33:17.343Z,98196.56
2017-12-28T07:35:46.724Z,98204.02
2017-12-28T07:38:16.803Z,98215.39
2017-12-28T07:40:46.013Z,98210.95
2017-12-28T07:43:15.398Z,98221.16
2017-12-28T07:45:44.636Z,98223.80
2017-12-28T07:48:14.611Z,98219.89
2017-12-28T07:50:43.858Z,98219.16
2017-12-28T07:53:13.817Z,98224.45
2017-12-28T07:55:43.125Z,98224.66
2017-12-28T07:58:12.303Z,98231.11
2017-12-28T08:00:41.485Z,98235.02
2017-12-28T08:03:10.703Z,98236.77
2017-12-28T08:05:39.934Z,98231.84
2017-12-28T08:08:09.243Z,98240.92
2017-12-28T08:10:38.435Z,98234.64
2017-12-28T08:13:07.626Z,98232.98
2017-12-28T08:15:36.820Z,98242.76
2017-12-28T08:18:06.019Z,98243.10
2017-12-28T08:20:35.211Z,98246.80
2017-12-28T08:23:04.430Z,98244.72
2017-12-28T08:25:33.627Z,98252.23
2017-12-28T08:28:02.822Z,98256.08
2017-12-28T08:30:32.018Z,98257.19
2017-12-28T08:33:01.246Z,98258.53
2017-12-28T08:35:31.187Z,98254.11
2017-12-28T08:38:01.211Z,98256.95
2017-12-28T08:40:30.400Z,98256.80
2017-12-28T08:42:59.599Z,98252.09
2017-12-28T08:45:28.812Z,98260.33
2017-12-28T08:47:58.015Z,98269.62
2017-12-28T08:50:27.278Z,98278.56
2017-12-28T08:52:56.458Z,98276.44
2017-12-28T08:55:25.713Z,98283.00
2017-12-28T08:57:54.950Z,98278.28
2017-12-28T09:00:24.947Z,98279.45
2017-12-28T09:02:54.158Z,98289.03
2017-12-28T09:05:23.491Z,98288.18
2017-12-28T09:07:52.739Z,98292.60
2017-12-28T09:10:21.940Z,98297.48
2017-12-28T09:12:51.941Z,98294.55
2017-12-28T09:15:21.199Z,98303.41
2017-12-28T09:17:50.410Z,98314.87
2017-12-28T09:20:19.621Z,98317.95
2017-12-28T09:22:48.836Z,98325.90
2017-12-28T09:25:19.453Z,98325.02
2017-12-28T09:27:51.623Z,98334.41
2017-12-28T09:30:20.811Z,98339.94
2017-12-28T09:32:50.025Z,98328.76
2017-12-28T09:35:19.241Z,98334.58
2017-12-28T09:37:48.450Z,98336.02
2017-12-28T09:40:18.418Z,98349.74
2017-12-28T09:42:47.687Z,98345.77
2017-12-28T09:45:16.961Z,98349.52
2017-12-28T09:47:46.156Z,98350.74
2017-12-28T09:50:16.250Z,98355.77
2017-12-28T09:52:46.226Z,98356.33
2017-12-28T09:55:15.435Z,98357.50
2017-12-28T09:57:44.623Z,98365.41
2017-12-28T10:00:13.821Z,98364.39
2017-12-28T10:02:43.031Z,98370.67
2017-12-28T10:05:12.271Z,98368.81
2017-12-28T10:07:42.240Z,98375.27
2017-12-28T10:10:11.435Z,98377.31
2017-12-28T10:12:40.675Z,98381.70
2017-12-28T10:15:09.906Z,98377.53
2017-12-28T10:17:39.142Z,98379.62
2017-12-28T10:20:08.335Z,98381.90
2017-12-28T10:22:37.554Z,98384.41
2017-12-28T10:25:06.785Z,98386.14
2017-12-28T10:27:36.754Z,98400.27
2017-12-28T10:30:05.978Z,98393.42
2017-12-28T10:32:35.245Z,98399.70
2017-12-28T10:35:04.392Z,98404.69
2017-12-28T10:37:34.375Z,98410.22
2017-12-28T10:40:03.790Z,98417.84
2017-12-28T10:42:33.022Z,98410.11
2017-12-28T10:45:02.254Z,98421.66
2017-12-28T10:47:31.471Z,98426.08
2017-12-28T10:50:00.795Z,98422.76
2017-12-28T10:52:30.760Z,98424.02
2017-12-28T10:54:59.966Z,98420.46
2017-12-28T10:57:29.203Z,98432.30
2017-12-28T10:59:59.200Z,98430.31
2017-12-28T11:02:28.396Z,98440.17
2017-12-28T11:04:57.716Z,98445.16
2017-12-28T11:07:27.665Z,98442.92
2017-12-28T11:09:56.875Z,98445.44
2017-12-28T11:12:26.460Z,98451.72
2017-12-28T11:14:55.743Z,98450.20
2017-12-28T11:17:25.732Z,98446.73
2017-12-28T11:19:54.981Z,98447.95
2017-12-28T11:22:24.206Z,98448.58
2017-12-28T11:24:53.513Z,98454.80
2017-12-28T11:27:22.715Z,98449.30
2017-12-28T11:29:51.922Z,98460.39
2017-12-28T11:32:21.198Z,98463.41
2017-12-28T11:34:50.407Z,98461.52
2017-12-28T11:37:19.634Z,98465.61
2017-12-28T11:39:49.584Z,98464.97
2017-12-28T11:42:18.824Z,98463.78
2017-12-28T11:44:48.031Z,98460.91
2017-12-28T11:47:17.228Z,98473.14
2017-12-28T11:49:56.334Z,98483.34
2017-12-28T11:52:30.790Z,98473.64
2017-12-28T11:55:04.886Z,98471.13
2017-12-28T11:57:36.951Z,98478.17
2017-12-28T12:13:34.812Z,98494.69
2017-12-28T12:16:03.997Z,98495.49
2017-12-28T12:18:33.308Z,98493.67
2017-12-28T12:21:02.491Z,98486.80
2017-12-28T12:23:31.686Z,98483.45
2017-12-28T12:26:02.413Z,98476.17
2017-12-28T12:28:31.631Z,98495.58
2017-12-28T12:31:00.831Z,98493.90
2017-12-28T12:33:30.117Z,98493.19
2017-12-28T12:36:00.108Z,98499.74
2017-12-28T12:38:29.301Z,98496.89
2017-12-28T12:40:58.529Z,98502.44
2017-12-28T12:43:27.710Z,98506.08
2017-12-28T12:45:57.004Z,98507.60
2017-12-28T12:48:26.280Z,98515.31
2017-12-28T12:50:56.364Z,98526.93
2017-12-28T12:53:25.817Z,98511.33
2017-12-28T12:55:55.005Z,98520.97
2017-12-28T12:58:24.220Z,98526.08
2017-12-28T13:00:53.546Z,98533.92
2017-12-28T13:03:22.746Z,98530.50
2017-12-28T13:05:51.933Z,98534.58
2017-12-28T13:08:21.236Z,98531.66
2017-12-28T13:10:50.424Z,98534.91
2017-12-28T13:13:19.717Z,98524.88
2017-12-28T13:15:48.948Z,98533.89
2017-12-28T13:18:19.023Z,98531.60
2017-12-28T13:20:48.278Z,98530.25
2017-12-28T13:23:18.266Z,98527.92
2017-12-28T13:25:47.524Z,98540.73
2017-12-28T13:28:16.722Z,98534.47
2017-12-28T13:30:45.966Z,98538.17
2017-12-28T13:33:15.359Z,98551.95
2017-12-28T13:35:44.552Z,98540.59
2017-12-28T13:38:13.903Z,98552.23
2017-12-28T13:40:43.141Z,98546.92
2017-12-28T13:43:12.374Z,98552.53
2017-12-28T13:45:42.421Z,98557.39
2017-12-28T13:48:11.650Z,98565.12
2017-12-28T13:50:40.859Z,98565.12
2017-12-28T13:53:10.061Z,98569.72
2017-12-28T13:55:39.295Z,98572.92
2017-12-28T13:58:09.363Z,98573.09
2017-12-28T14:00:38.693Z,98582.57
2017-12-28T14:03:08.663Z,98585.25
2017-12-28T14:05:37.870Z,98592.38
2017-12-28T14:08:07.058Z,98584.23
2017-12-28T14:10:36.254Z,98586.20
2017-12-28T14:13:05.874Z,98582.73
2017-12-28T14:15:35.072Z,98591.63
2017-12-28T14:18:04.314Z,98604.12
2017-12-28T14:20:34.287Z,98604.12
2017-12-28T14:23:03.608Z,98609.20
2017-12-28T14:25:32.814Z,98621.70
2017-12-28T14:28:02.127Z,98631.20
2017-12-28T14:30:31.336Z,98634.61
2017-12-28T14:33:00.544Z,98638.73
2017-12-28T14:35:29.856Z,98635.02
2017-12-28T14:37:59.076Z,98646.09
2017-12-28T14:40:28.289Z,98649.27
2017-12-28T14:42:57.481Z,98650.98
2017-12-28T14:45:26.698Z,98657.08
2017-12-28T14:47:55.895Z,98655.91
2017-12-28T14:50:25.885Z,98656.78
2017-12-28T14:52:55.166Z,98660.16
2017-12-28T14:55:24.367Z,98671.79
2017-12-28T14:57:53.652Z,98671.95
2017-12-28T15:00:23.608Z,98681.76
2017-12-28T15:02:52.811Z,98690.83
2017-12-28T15:05:22.023Z,98689.33
2017-12-28T15:07:51.208Z,98684.05
2017-12-28T15:10:20.413Z,98686.65
2017-12-28T15:12:50.389Z,98699.06
2017-12-28T15:15:19.595Z,98692.27
2017-12-28T15:17:48.856Z,98696.69
2017-12-28T15:20:18.056Z,98703.80
2017-12-28T15:22:47.278Z,98703.72
2017-12-28T15:25:16.484Z,98710.05
2017-12-28T15:27:45.680Z,98714.48
2017-12-28T15:30:14.919Z,98716.23
2017-12-28T15:32:44.911Z,98714.78
2017-12-28T15:35:14.122Z,98723.34
2017-12-28T15:37:43.378Z,98719.69
2017-12-28T15:40:12.571Z,98722.53
2017-12-28T15:42:41.777Z,98719.78
2017-12-28T15:45:10.989Z,98729.64
2017-12-28T15:47:40.202Z,98732.35
2017-12-28T15:50:09.430Z,98727.60
2017-12-28T15:52:38.631Z,98732.42
2017-12-28T15:55:07.937Z,98730.52
2017-12-28T15:57:37.118Z,98729.03
2017-12-28T16:00:07.102Z,98729.11
2017-12-28T16:02:36.311Z,98734.77
2017-12-28T16:05:06.330Z,98745.23
2017-12-28T16:07:36.295Z,98741.98
2017-12-28T16:10:05.520Z,98743.30
2017-12-28T16:12:34.714Z,98738.64
2017-12-28T16:15:03.920Z,98740.22
2017-12-28T16:17:33.170Z,98749.41
2017-12-28T16:20:02.383Z,98753.04
2017-12-28T16:22:31.592Z,98748.92
2017-12-28T16:25:00.800Z,98748.30
2017-12-28T16:27:30.005Z,98756.98
2017-12-28T16:29:59.265Z,98762.36
2017-12-28T16:32:28.491Z,98757.14
2017-12-28T16:34:57.712Z,98773.34
2017-12-28T16:37:26.951Z,98774.42
2017-12-28T16:39:56.158Z,98777.51
2017-12-28T16:42:25.359Z,98782.27
2017-12-28T16:44:54.539Z,98777.68
2017-12-28T16:47:23.762Z,98777.86
2017-12-28T16:49:52.998Z,98782.13
2017-12-28T16:52:22.176Z,98776.77
2017-12-28T16:54:51.410Z,98783.70
2017-12-28T16:57:21.383Z,98784.09
2017-12-28T16:59:50.579Z,98787.80
2017-12-28T17:02:19.784Z,98786.93
2017-12-28T17:04:49.010Z,98788.44
2017-12-28T17:07:18.986Z,98789.55
2017-12-28T17:09:48.261Z,98793.07
2017-12-28T17:12:17.439Z,98803.11
2017-12-28T17:14:46.718Z,98808.95
2017-12-28T17:17:16.691Z,98810.06
2017-12-28T17:19:46.067Z,98820.02
2017-12-28T17:22:16.004Z,98821.60
2017-12-28T17:24:45.224Z,98827.05
2017-12-28T17:27:14.468Z,98823.73
2017-12-28T17:29:43.681Z,98836.70
2017-12-28T17:32:12.898Z,98824.37
2017-12-28T17:34:42.176Z,98838.67
2017-12-28T17:37:11.380Z,98843.48
2017-12-28T17:39:40.902Z,98839.86
2017-12-28T17:42:10.203Z,98845.09
2017-12-28T17:44:39.402Z,98849.36
2017-12-28T17:47:08.641Z,98850.59
2017-12-28T17:49:38.627Z,98841.75
2017-12-28T17:52:07.966Z,98850.76
2017-12-28T17:54:37.145Z,98851.89
2017-12-28T17:57:07.146Z,98857.50
2017-12-28T17:59:37.134Z,98851.63
2017-12-28T18:02:06.350Z,98866.56
2017-12-28T18:04:35.580Z,98863.59
2017-12-28T18:07:05.545Z,98875.91
2017-12-28T18:09:34.782Z,98888.95
2017-12-28T18:12:03.986Z,98884.58
2017-12-28T18:14:34.047Z,98887.92
2017-12-28T18:17:03.274Z,98877.58
2017-12-28T18:19:32.482Z,98888.72
2017-12-28T18:22:01.714Z,98883.81
2017-12-28T18:24:30.944Z,98890.93
2017-12-28T18:27:00.212Z,98899.07
2017-12-28T18:29:29.432Z,98902.52
2017-12-28T18:31:58.732Z,98896.91
2017-12-28T18:34:28.058Z,98904.41
2017-12-28T18:36:57.346Z,98911.13
2017-12-28T18:39:26.529Z,98907.49
2017-12-28T18:41:55.850Z,98909.00
2017-12-28T18:44:25.108Z,98915.58
2017-12-28T18:46:54.362Z,98918.08
2017-12-28T18:49:23.599Z,98916.38
2017-12-28T18:51:52.858Z,98925.83
2017-12-28T18:54:22.094Z,98930.02
2017-12-28T18:56:52.157Z,98930.88
2017-12-28T18:59:21.408Z,98930.48
2017-12-28T19:01:51.406Z,98927.72
2017-12-28T19:04:20.639Z,98933.41
2017-12-28T19:06:49.871Z,98934.91
2017-12-28T19:09:19.906Z,98930.33
2017-12-28T19:11:49.134Z,98934.28
2017-12-28T19:14:18.486Z,98933.48
2017-12-28T19:16:47.754Z,98941.59
2017-12-28T19:19:17.107Z,98946.92
2017-12-28T19:21:46.898Z,98947.63
2017-12-28T19:24:16.967Z,98948.73
2017-12-28T19:26:46.474Z,98957.91
2017-12-28T19:29:16.452Z,98960.16
2017-12-28T19:31:45.889Z,98954.55
2017-12-28T19:34:15.899Z,98956.91
2017-12-28T19:36:46.192Z,98945.11
2017-12-28T19:39:15.683Z,98940.89
2017-12-28T19:41:46.257Z,98950.60
2017-12-28T19:44:16.249Z,98954.75
2017-12-28T19:46:45.614Z,98968.14
2017-12-28T19:49:15.448Z,98955.19
2017-12-28T19:51:45.032Z,98963.32
2017-12-28T19:54:14.634Z,98966.09
2017-12-28T19:56:44.091Z,98973.56
2017-12-28T19:59:13.784Z,98961.27
2017-12-28T20:01:44.146Z,98970.03
2017-12-28T20:04:13.896Z,98977.34
2017-12-28T20:06:43.494Z,98981.93
2017-12-28T20:09:13.967Z,98971.19
2017-12-28T20:11:44.166Z,98968.73
2017-12-28T20:14:13.863Z,98969.05
2017-12-28T20:16:43.296Z,98971.06
2017-12-28T20:19:14.462Z,98975.53
2017-12-28T20:21:44.216Z,98968.97
2017-12-28T20:24:13.759Z,98979.87
2017-12-28T20:26:43.285Z,98976.78
2017-12-28T20:29:12.789Z,98989.19
2017-12-28T20:31:42.498Z,98986.34
2017-12-28T20:34:13.406Z,98992.52
2017-12-28T20:36:43.225Z,98988.41
2017-12-28T20:39:13.929Z,98992.63
2017-12-28T20:41:43.640Z,98990.23
2017-12-28T20:44:13.951Z,98996.27
2017-12-28T20:46:44.498Z,98996.43
2017-12-28T20:49:15.737Z,98998.88
2017-12-28T20:51:45.570Z,99005.71
2017-12-28T20:54:15.923Z,99010.10
2017-12-28T20:56:46.416Z,99010.61
2017-12-28T20:59:16.799Z,99011.25
2017-12-28T21:01:47.085Z,99022.23
2017-12-28T21:04:17.619Z,99022.03
2017-12-28T21:06:48.594Z,99017.05
2017-12-28T21:09:19.009Z,99018.08
2017-12-28T21:11:48.574Z,99015.43
2017-12-28T21:14:19.025Z,99015.59
2017-12-28T21:16:49.350Z,99019.07
2017-12-28T21:19:18.972Z,99025.07
2017-12-28T21:21:48.718Z,99030.28
2017-12-28T21:24:18.842Z,99026.41
2017-12-28T21:26:48.963Z,99031.44
2017-12-28T21:29:18.574Z,99028.00
2017-12-28T21:31:48.866Z,99024.84
2017-12-28T21:34:18.993Z,99034.40
2017-12-28T21:36:48.501Z,99032.90
2017-12-28T21:39:18.553Z,99042.61
2017-12-28T21:41:48.298Z,99045.97
2017-12-28T21:44:18.890Z,99049.56
2017-12-28T21:46:48.908Z,99057.75
2017-12-28T21:49:19.129Z,99051.41
2017-12-28T21:51:49.500Z,99059.52
2017-12-28T21:54:19.825Z,99056.35
2017-12-28T21:56:49.718Z,99066.41
2017-12-28T21:59:19.585Z,99064.13
2017-12-28T22:01:49.607Z,99073.10
2017-12-28T22:04:19.496Z,99077.68
2017-12-28T22:06:49.765Z,99086.53
2017-12-28T22:09:20.219Z,99087.64
2017-12-28T22:11:51.248Z,99096.93
2017-12-28T22:14:21.134Z,99089.16
2017-12-28T22:16:50.376Z,99097.94
2017-12-28T22:19:19.578Z,99106.30
2017-12-28T22:21:49.978Z,99103.62
2017-12-28T22:24:19.327Z,99108.59
2017-12-28T22:26:48.574Z,99106.45
2017-12-28T22:29:17.798Z,99115.40
2017-12-28T22:31:47.050Z,99110.73
2017-12-28T22:34:17.112Z,99115.40
2017-12-28T22:36:46.402Z,99118.48
2017-12-28T22:39:15.683Z,99121.69
2017-12-28T22:41:45.695Z,99124.77
2017-12-28T22:44:14.932Z,99124.53
2017-12-28T22:46:44.230Z,99120.34
2017-12-28T22:49:13.607Z,99120.61
2017-12-28T22:51:42.820Z,99128.67
2017-12-28T22:54:12.035Z,99120.46
2017-12-28T22:56:41.242Z,99128.91
2017-12-28T22:59:10.486Z,99126.14
2017-12-28T23:01:40.462Z,99129.84
2017-12-28T23:04:09.741Z,99138.06
2017-12-28T23:06:38.954Z,99138.10
2017-12-28T23:09:08.157Z,99149.48
2017-12-28T23:11:37.388Z,99146.28
2017-12-28T23:14:07.349Z,99148.34
2017-12-28T23:16:36.571Z,99154.52
2017-12-28T23:19:05.792Z,99155.15
2017-12-28T23:21:35.778Z,99152.92
2017-12-28T23:24:05.022Z,99166.36
2017-12-28T23:26:34.226Z,99174.35
2017-12-28T23:29:03.442Z,99172.70
2017-12-28T23:31:32.674Z,99176.48
2017-12-28T23:34:01.888Z,99174.35
2017-12-28T23:36:31.860Z,99174.58
2017-12-28T23:39:01.098Z,99181.53
2017-12-28T23:41:30.289Z,99175.66
2017-12-28T23:44:00.284Z,99175.52
2017-12-28T23:46:29.484Z,99180.34
2017-12-28T23:48:58.706Z,99183.36
2017-12-28T23:51:28.719Z,99184.22
2017-12-28T23:53:59.459Z,99183.62
2017-12-28T23:56:29.471Z,99191.27
2017-12-28T23:58:58.719Z,99185.06
